Time;durP1;ratioP1;P1;durP2;ratioP2;P2;SDS_P1;SDS_P2;PMS_P1;PMS_P2;Temp;Humidity;BMP_temperature;BMP_pressure;BME280_temperature;BME280_humidity;BME280_pressure;Samples;Min_cycle;Max_cycle;Signal;HPM_P1;HPM_P2
2021/03/08 00:00:18;;;;;;;20.90;15.23;;;;;;;1.95;76.49;96120.25;1284391;23;20004;-68
2021/03/08 00:00:48;;;;;;;22.27;16.17;;;;;;;1.94;76.63;96125.72;1284206;23;20422;-68
2021/03/08 00:01:19;;;;;;;24.27;15.37;;;;;;;1.92;76.65;96133.84;1284664;23;20028;-70
2021/03/08 00:01:49;;;;;;;25.30;15.40;;;;;;;1.90;76.59;96133.25;1284342;23;19999;-69
2021/03/08 00:02:19;;;;;;;23.67;16.13;;;;;;;1.90;77.39;96140.34;1284566;23;20016;-69
2021/03/08 00:02:51;;;;;;;24.67;16.13;;;;;;;1.88;77.10;96135.28;1284236;23;20012;-69
2021/03/08 00:03:21;;;;;;;22.98;16.10;;;;;;;1.88;77.58;96132.63;1284354;23;19989;-69
2021/03/08 00:03:52;;;;;;;21.77;16.17;;;;;;;1.86;77.24;96139.97;1284313;23;20012;-70
2021/03/08 00:04:22;;;;;;;20.57;16.00;;;;;;;1.83;77.38;96135.91;1284333;23;19996;-69
2021/03/08 00:04:53;;;;;;;21.23;16.27;;;;;;;1.82;77.52;96126.38;1284173;23;19999;-70
2021/03/08 00:05:23;;;;;;;27.83;16.60;;;;;;;1.80;76.98;96135.53;1284411;23;19996;-68
2021/03/08 00:05:54;;;;;;;22.67;16.77;;;;;;;1.80;77.76;96138.19;1284357;23;20300;-70
2021/03/08 00:06:24;;;;;;;21.33;15.93;;;;;;;1.78;77.46;96134.94;1290182;23;20326;-68
2021/03/08 00:06:57;;;;;;;26.53;16.63;;;;;;;1.78;76.96;96135.72;1290093;23;20047;-69
2021/03/08 00:07:28;;;;;;;22.75;15.80;;;;;;;1.78;77.12;96140.19;1290256;23;19992;-68
2021/03/08 00:07:58;;;;;;;21.07;15.70;;;;;;;1.77;77.68;96136.75;1289633;23;20003;-69
2021/03/08 00:08:29;;;;;;;21.40;15.57;;;;;;;1.76;77.96;96144.88;1283854;23;20001;-69
2021/03/08 00:08:59;;;;;;;21.07;15.80;;;;;;;1.76;77.82;96140.41;1283728;23;19993;-69
2021/03/08 00:09:30;;;;;;;21.10;15.50;;;;;;;1.76;78.36;96150.16;1283919;23;19997;-70
2021/03/08 00:10:05;;;;;;;24.27;15.53;;;;;;;1.75;78.00;96143.28;1283868;23;20023;-69
2021/03/08 00:10:35;;;;;;;22.55;15.82;;;;;;;1.76;77.73;96144.88;1284335;23;20403;-71
2021/03/08 00:11:06;;;;;;;24.60;15.90;;;;;;;1.75;77.95;96146.72;1284078;23;20001;-69
2021/03/08 00:11:36;;;;;;;24.83;16.07;;;;;;;1.75;78.02;96151.97;1284388;23;20434;-70
2021/03/08 00:12:07;;;;;;;22.73;15.23;;;;;;;1.75;77.96;96151.19;1284188;23;20263;-69
2021/03/08 00:12:38;;;;;;;21.92;15.82;;;;;;;1.71;78.79;96147.34;1284392;23;20003;-68
2021/03/08 00:13:08;;;;;;;21.70;14.93;;;;;;;1.69;78.29;96158.09;1284403;23;20449;-68
2021/03/08 00:13:42;;;;;;;21.87;14.97;;;;;;;1.69;78.75;96152.00;1283443;23;20009;-69
2021/03/08 00:14:12;;;;;;;23.83;17.20;;;;;;;1.65;78.28;96156.91;1284540;23;19996;-70
2021/03/08 00:14:43;;;;;;;22.63;16.03;;;;;;;1.64;79.09;96157.09;1284230;23;20374;-70
2021/03/08 00:15:14;;;;;;;26.17;16.33;;;;;;;1.62;78.82;96156.50;1284510;23;19993;-68
2021/03/08 00:15:44;;;;;;;26.92;16.40;;;;;;;1.63;79.34;96153.63;1284135;23;19993;-70
2021/03/08 00:16:14;;;;;;;23.20;16.17;;;;;;;1.63;79.09;96153.63;1284551;23;20382;-69
2021/03/08 00:16:45;;;;;;;24.10;15.53;;;;;;;1.64;78.93;96157.91;1284294;23;20456;-69
2021/03/08 00:17:16;;;;;;;23.17;15.90;;;;;;;1.63;79.65;96153.63;1284273;23;20430;-70
2021/03/08 00:17:47;;;;;;;22.70;16.25;;;;;;;1.63;79.35;96155.47;1284077;23;19997;-69
2021/03/08 00:18:17;;;;;;;24.10;16.17;;;;;;;1.60;79.29;96148.00;1284109;23;20495;-69
2021/03/08 00:18:50;;;;;;;20.40;15.33;;;;;;;1.62;79.01;96145.97;1284188;23;20426;-71
2021/03/08 00:19:21;;;;;;;23.38;16.35;;;;;;;1.59;79.50;96149.00;1284325;23;20371;-70
2021/03/08 00:19:54;;;;;;;26.07;17.00;;;;;;;1.60;78.95;96142.72;1284254;23;19992;-71
2021/03/08 00:20:26;;;;;;;23.63;16.52;;;;;;;1.60;79.28;96148.81;1284749;23;20028;-69
2021/03/08 00:20:56;;;;;;;23.52;16.13;;;;;;;1.59;79.41;96141.09;1284549;23;19996;-71
2021/03/08 00:21:26;;;;;;;24.90;16.87;;;;;;;1.60;79.04;96142.72;1284531;23;20001;-68
2021/03/08 00:21:57;;;;;;;23.37;15.90;;;;;;;1.61;79.83;96144.34;1284237;23;19996;-68
2021/03/08 00:22:27;;;;;;;23.03;16.03;;;;;;;1.61;79.61;96139.88;1284500;23;20426;-69
2021/03/08 00:22:58;;;;;;;24.90;16.43;;;;;;;1.58;79.42;96142.13;1284211;23;19997;-70
2021/03/08 00:23:28;;;;;;;22.27;16.77;;;;;;;1.59;79.35;96138.47;1284445;23;20005;-69
2021/03/08 00:23:59;;;;;;;24.33;16.63;;;;;;;1.59;79.19;96136.66;1284272;23;20020;-69
2021/03/08 00:24:31;;;;;;;23.02;16.67;;;;;;;1.59;79.26;96141.94;1284625;23;20028;-68
2021/03/08 00:25:04;;;;;;;22.37;16.03;;;;;;;1.59;79.21;96143.72;1284222;23;20323;-68
2021/03/08 00:25:35;;;;;;;24.48;17.15;;;;;;;1.63;79.87;96132.56;1284433;23;19996;-68
2021/03/08 00:26:05;;;;;;;24.73;16.43;;;;;;;1.59;80.00;96136.66;1284282;23;20000;-69
2021/03/08 00:26:36;;;;;;;24.87;17.47;;;;;;;1.55;80.18;96130.19;1284501;23;19992;-68
2021/03/08 00:27:06;;;;;;;24.77;16.50;;;;;;;1.55;79.60;96131.00;1284067;23;20004;-68
2021/03/08 00:27:37;;;;;;;25.30;16.47;;;;;;;1.55;79.80;96136.25;1284313;23;19997;-68
2021/03/08 00:28:07;;;;;;;21.00;15.77;;;;;;;1.55;79.15;96125.72;1284349;23;20027;-68
2021/03/08 00:28:37;;;;;;;22.23;16.17;;;;;;;1.56;79.41;96123.91;1284432;23;20051;-68
2021/03/08 00:29:08;;;;;;;23.60;16.93;;;;;;;1.57;79.45;96128.13;1283975;23;20001;-69
2021/03/08 00:29:38;;;;;;;22.80;16.60;;;;;;;1.56;79.75;96127.34;1284085;23;20071;-68
2021/03/08 00:30:09;;;;;;;29.63;16.63;;;;;;;1.59;79.09;96130.56;1284139;23;20042;-68
2021/03/08 00:30:40;;;;;;;22.43;17.20;;;;;;;1.54;79.22;96131.22;1284091;23;19996;-68
2021/03/08 00:31:10;;;;;;;21.37;15.30;;;;;;;1.53;79.45;96124.31;1284558;23;20000;-68
2021/03/08 00:31:41;;;;;;;24.67;15.67;;;;;;;1.54;79.09;96124.13;1284682;23;20432;-68
2021/03/08 00:32:11;;;;;;;22.70;15.73;;;;;;;1.54;79.21;96120.69;1283901;23;20011;-68
2021/03/08 00:32:42;;;;;;;22.27;15.67;;;;;;;1.53;79.46;96126.94;1284307;23;20422;-69
2021/03/08 00:33:12;;;;;;;23.40;16.63;;;;;;;1.51;79.52;96127.16;1283945;23;20448;-70
2021/03/08 00:33:42;;;;;;;21.83;15.60;;;;;;;1.52;79.55;96120.06;1283608;23;20005;-70
2021/03/08 00:34:13;;;;;;;24.23;16.53;;;;;;;1.50;79.36;96125.53;1283638;23;20003;-69
2021/03/08 00:34:43;;;;;;;24.07;16.03;;;;;;;1.51;78.87;96129.78;1284499;23;20015;-69
2021/03/08 00:35:14;;;;;;;23.27;16.10;;;;;;;1.50;79.06;96130.81;1284404;23;20326;-69
2021/03/08 00:35:44;;;;;;;22.90;15.83;;;;;;;1.52;79.18;96130.59;1284588;23;20288;-69
2021/03/08 00:36:15;;;;;;;22.27;16.07;;;;;;;1.51;80.00;96126.34;1284413;23;19997;-69
2021/03/08 00:36:45;;;;;;;23.57;15.83;;;;;;;1.48;80.00;96129.38;1283930;23;20413;-68
2021/03/08 00:37:16;;;;;;;22.93;15.90;;;;;;;1.49;79.80;96129.22;1283813;23;20001;-68
2021/03/08 00:37:46;;;;;;;25.23;17.40;;;;;;;1.48;79.55;96129.38;1284495;23;20005;-68
2021/03/08 00:38:17;;;;;;;24.23;15.63;;;;;;;1.48;79.62;96132.84;1284469;23;20452;-69
2021/03/08 00:38:47;;;;;;;23.87;16.43;;;;;;;1.49;79.68;96131.03;1284436;23;19996;-69
2021/03/08 00:39:17;;;;;;;22.57;16.37;;;;;;;1.49;80.05;96125.75;1284453;23;19996;-68
2021/03/08 00:39:48;;;;;;;22.77;15.90;;;;;;;1.46;79.77;96123.53;1284394;23;20390;-69
2021/03/08 00:40:20;;;;;;;22.00;16.50;;;;;;;1.46;79.52;96118.28;1284339;23;20070;-69
2021/03/08 00:40:51;;;;;;;23.48;16.08;;;;;;;1.46;79.97;96121.72;1284414;23;20028;-69
2021/03/08 00:41:22;;;;;;;25.20;16.27;;;;;;;1.47;79.98;96123.31;1284428;23;20071;-68
2021/03/08 00:41:52;;;;;;;22.30;16.50;;;;;;;1.46;79.48;96129.59;1284324;23;20009;-68
2021/03/08 00:42:23;;;;;;;24.83;17.13;;;;;;;1.45;80.35;96117.47;1284256;23;20000;-69
2021/03/08 00:42:53;;;;;;;23.80;16.43;;;;;;;1.45;80.12;96121.94;1284432;23;20000;-68
2021/03/08 00:43:24;;;;;;;24.27;17.07;;;;;;;1.44;80.00;96125.59;1283559;23;20011;-67
2021/03/08 00:43:54;;;;;;;24.00;17.17;;;;;;;1.43;79.85;96126.56;1283848;23;20570;-67
2021/03/08 00:44:25;;;;;;;23.33;16.47;;;;;;;1.44;80.10;96125.59;1283776;23;20007;-68
2021/03/08 00:44:55;;;;;;;24.77;16.73;;;;;;;1.42;79.82;96123.13;1284467;23;19996;-67
2021/03/08 00:45:26;;;;;;;23.50;16.70;;;;;;;1.40;80.29;96127.81;1284323;23;20228;-67
2021/03/08 00:45:56;;;;;;;20.97;15.87;;;;;;;1.40;80.50;96133.09;1284004;23;19996;-67
2021/03/08 00:46:27;;;;;;;25.77;17.13;;;;;;;1.39;80.61;96125.41;1283755;23;20032;-67
2021/03/08 00:46:57;;;;;;;23.17;16.53;;;;;;;1.40;80.99;96129.66;1284277;23;20445;-68
2021/03/08 00:47:28;;;;;;;24.20;17.30;;;;;;;1.39;81.26;96128.84;1283623;23;20001;-67
2021/03/08 00:47:58;;;;;;;25.77;17.33;;;;;;;1.36;81.22;96131.88;1284072;23;20563;-67
2021/03/08 00:48:28;;;;;;;27.63;17.60;;;;;;;1.36;80.92;96125.81;1284056;23;20433;-67
2021/03/08 00:48:59;;;;;;;25.37;16.90;;;;;;;1.34;81.01;96133.13;1284589;23;20005;-67
2021/03/08 00:49:29;;;;;;;22.40;16.57;;;;;;;1.35;80.66;96127.63;1284336;23;20368;-67
2021/03/08 00:50:00;;;;;;;25.20;18.77;;;;;;;1.37;81.33;96130.06;1284543;23;20426;-68
2021/03/08 00:50:30;;;;;;;24.80;18.20;;;;;;;1.37;80.86;96128.22;1284427;23;20004;-67
2021/03/08 00:51:01;;;;;;;24.23;17.93;;;;;;;1.40;80.55;96127.00;1284163;23;20000;-69
2021/03/08 00:51:31;;;;;;;24.40;18.77;;;;;;;1.42;80.87;96132.88;1284582;23;20422;-69
2021/03/08 00:52:01;;;;;;;27.27;19.07;;;;;;;1.42;80.71;96130.22;1284639;23;20437;-68
2021/03/08 00:52:32;;;;;;;24.13;17.83;;;;;;;1.41;81.09;96126.00;1284567;23;20007;-67
2021/03/08 00:53:02;;;;;;;26.20;18.53;;;;;;;1.38;80.67;96127.19;1284468;23;20027;-67
2021/03/08 00:53:33;;;;;;;26.67;17.47;;;;;;;1.37;81.18;96137.94;1284556;23;20031;-67
2021/03/08 00:54:03;;;;;;;25.40;18.20;;;;;;;1.39;80.99;96128.03;1284551;23;20437;-68
2021/03/08 00:54:34;;;;;;;24.30;17.73;;;;;;;1.39;81.12;96133.31;1283938;23;20092;-67
2021/03/08 00:55:05;;;;;;;27.23;18.20;;;;;;;1.35;81.57;96132.09;1284237;23;19997;-67
2021/03/08 00:55:35;;;;;;;24.83;18.27;;;;;;;1.33;81.10;96124.38;1284128;23;20004;-67
2021/03/08 00:56:05;;;;;;;25.03;17.97;;;;;;;1.33;81.27;96132.28;1284297;23;20419;-67
2021/03/08 00:56:36;;;;;;;24.63;17.60;;;;;;;1.33;81.08;96134.13;1284536;23;20046;-67
2021/03/08 00:57:07;;;;;;;28.10;18.57;;;;;;;1.32;81.72;96130.66;1284584;23;20055;-67
2021/03/08 00:57:38;;;;;;;23.33;18.10;;;;;;;1.32;81.40;96135.13;1284366;23;20024;-68
2021/03/08 00:58:08;;;;;;;25.90;17.95;;;;;;;1.28;81.67;96135.56;1284681;23;20674;-67
2021/03/08 00:58:38;;;;;;;26.23;18.50;;;;;;;1.28;81.41;96140.03;1284418;23;20013;-68
2021/03/08 00:59:09;;;;;;;25.67;18.50;;;;;;;1.27;82.05;96119.94;1284580;23;20000;-67
2021/03/08 00:59:39;;;;;;;25.97;18.63;;;;;;;1.28;81.56;96138.19;1284622;23;20020;-67
2021/03/08 01:00:12;;;;;;;23.80;18.57;;;;;;;1.28;81.82;96130.31;1284216;23;20004;-67
2021/03/08 01:00:42;;;;;;;25.65;17.83;;;;;;;1.30;81.25;96135.34;1284212;23;20389;-67
2021/03/08 01:01:12;;;;;;;23.53;17.97;;;;;;;1.30;81.24;96128.25;1284231;23;20072;-67
2021/03/08 01:01:43;;;;;;;24.07;18.10;;;;;;;1.31;81.79;96129.06;1284368;23;20000;-68
2021/03/08 01:02:13;;;;;;;27.00;18.50;;;;;;;1.35;81.08;96126.84;1284682;23;20062;-67
2021/03/08 01:02:44;;;;;;;27.93;19.17;;;;;;;1.35;81.04;96125.00;1284541;23;20004;-67
2021/03/08 01:03:14;;;;;;;26.27;18.73;;;;;;;1.36;81.24;96125.81;1284559;23;20080;-67
2021/03/08 01:03:45;;;;;;;24.83;18.53;;;;;;;1.35;81.15;96124.19;1284513;23;19992;-67
2021/03/08 01:04:15;;;;;;;25.57;18.07;;;;;;;1.35;80.40;96118.94;1284714;23;20078;-67
2021/03/08 01:04:45;;;;;;;26.83;19.10;;;;;;;1.34;81.27;96118.13;1284630;23;20488;-67
2021/03/08 01:05:16;;;;;;;25.17;18.57;;;;;;;1.33;80.96;96113.84;1284561;23;20051;-69
2021/03/08 01:05:46;;;;;;;25.40;18.40;;;;;;;1.32;80.42;96119.34;1284702;23;20031;-69
2021/03/08 01:06:17;;;;;;;24.87;18.20;;;;;;;1.32;80.84;96117.50;1284660;23;20476;-69
2021/03/08 01:06:47;;;;;;;26.60;17.80;;;;;;;1.32;81.22;96119.34;1284561;23;20004;-69
2021/03/08 01:07:18;;;;;;;23.88;17.30;;;;;;;1.33;80.72;96120.94;1284632;23;20008;-69
2021/03/08 01:07:49;;;;;;;23.90;17.23;;;;;;;1.32;80.63;96124.59;1284603;23;20031;-69
2021/03/08 01:08:19;;;;;;;24.60;17.75;;;;;;;1.32;80.91;96125.41;1284653;23;20005;-69
2021/03/08 01:08:50;;;;;;;29.03;17.80;;;;;;;1.31;80.72;96126.44;1290316;23;19996;-68
2021/03/08 01:09:20;;;;;;;23.40;16.77;;;;;;;1.32;80.64;96132.50;1290571;23;20369;-69
2021/03/08 01:09:51;;;;;;;24.13;16.77;;;;;;;1.32;80.92;96128.03;1290489;23;20437;-69
2021/03/08 01:10:24;;;;;;;24.07;17.60;;;;;;;1.29;80.87;96123.22;1290617;23;20070;-68
2021/03/08 01:10:55;;;;;;;25.27;18.33;;;;;;;1.30;80.66;96128.25;1284512;23;20047;-69
2021/03/08 01:11:25;;;;;;;25.27;17.77;;;;;;;1.28;80.68;96134.75;1284619;23;20082;-69
2021/03/08 01:11:56;;;;;;;23.13;16.93;;;;;;;1.29;80.93;96136.38;1284622;23;19996;-69
2021/03/08 01:12:26;;;;;;;26.63;17.93;;;;;;;1.29;81.15;96136.38;1284676;23;19997;-68
2021/03/08 01:12:57;;;;;;;24.00;16.97;;;;;;;1.33;81.21;96131.47;1284658;23;20050;-69
2021/03/08 01:13:27;;;;;;;23.00;17.23;;;;;;;1.33;80.91;96127.00;1284572;23;19997;-69
2021/03/08 01:13:57;;;;;;;23.50;17.83;;;;;;;1.32;81.38;96122.78;1284597;23;19997;-71
2021/03/08 01:14:28;;;;;;;25.53;17.77;;;;;;;1.35;81.58;96130.28;1284649;23;19997;-68
2021/03/08 01:14:58;;;;;;;23.40;17.37;;;;;;;1.37;81.28;96133.50;1284703;23;20415;-69
2021/03/08 01:15:29;;;;;;;27.83;18.57;;;;;;;1.39;81.49;96126.22;1284765;23;20000;-69
2021/03/08 01:15:59;;;;;;;27.77;18.27;;;;;;;1.40;80.82;96127.00;1284598;23;20079;-69
2021/03/08 01:16:29;;;;;;;24.80;18.27;;;;;;;1.40;80.84;96122.56;1284601;23;20335;-69
2021/03/08 01:17:00;;;;;;;26.43;18.17;;;;;;;1.39;81.24;96120.13;1284660;23;20311;-69
2021/03/08 01:17:30;;;;;;;23.10;17.20;;;;;;;1.36;81.16;96121.34;1284610;23;20001;-68
2021/03/08 01:18:01;;;;;;;25.50;17.70;;;;;;;1.37;80.77;96111.63;1284660;23;20001;-69
2021/03/08 01:18:31;;;;;;;23.60;16.97;;;;;;;1.32;81.45;96117.50;1284575;23;20001;-68
2021/03/08 01:19:02;;;;;;;25.10;17.77;;;;;;;1.28;81.02;96113.69;1284682;23;20011;-69
2021/03/08 01:19:33;;;;;;;23.87;17.27;;;;;;;1.24;80.91;96118.56;1284771;23;20481;-69
2021/03/08 01:20:08;;;;;;;23.95;17.20;;;;;;;1.23;81.21;96110.88;1284534;23;20099;-69
2021/03/08 01:20:39;;;;;;;24.83;17.30;;;;;;;1.22;81.73;96122.41;1284589;23;20007;-69
2021/03/08 01:21:09;;;;;;;24.17;17.03;;;;;;;1.21;81.54;96123.44;1284593;23;19996;-69
2021/03/08 01:21:39;;;;;;;32.80;18.37;;;;;;;1.20;80.85;96116.56;1284619;23;20009;-69
2021/03/08 01:22:10;;;;;;;28.17;18.40;;;;;;;1.21;81.08;96107.63;1284590;23;20120;-69
2021/03/08 01:22:41;;;;;;;27.07;18.27;;;;;;;1.19;81.52;96107.03;1284720;23;20422;-69
2021/03/08 01:23:12;;;;;;;22.87;17.17;;;;;;;1.18;81.39;96110.69;1284526;23;20001;-69
2021/03/08 01:23:42;;;;;;;25.02;18.33;;;;;;;1.20;81.44;96106.03;1284742;23;20055;-71
2021/03/08 01:24:13;;;;;;;27.43;19.53;;;;;;;1.16;81.59;96104.81;1284641;23;20517;-69
2021/03/08 01:24:43;;;;;;;26.73;17.67;;;;;;;1.16;81.20;96104.81;1284176;23;20047;-69
2021/03/08 01:25:25;;;;;;;25.60;19.10;;;;;;;1.15;81.69;96113.72;1284230;23;20050;-69
2021/03/08 01:25:55;;;;;;;26.05;19.08;;;;;;;1.10;82.38;96109.09;1284229;23;20404;-69
2021/03/08 01:26:26;;;;;;;24.83;18.27;;;;;;;1.13;82.45;96102.63;1284213;23;20043;-69
2021/03/08 01:26:56;;;;;;;29.10;18.60;;;;;;;1.13;82.35;96110.50;1284153;23;20051;-69
2021/03/08 01:27:26;;;;;;;25.20;18.57;;;;;;;1.13;82.79;96111.31;1277879;23;20446;-69
2021/03/08 01:27:57;;;;;;;27.20;18.27;;;;;;;1.16;82.30;96117.97;1271481;23;20010;-69
2021/03/08 01:28:28;;;;;;;27.30;18.70;;;;;;;1.13;82.54;96118.41;1272016;23;20005;-69
2021/03/08 01:28:58;;;;;;;33.07;19.87;;;;;;;1.09;82.68;96110.09;1272213;23;20009;-69
2021/03/08 01:29:28;;;;;;;27.17;19.43;;;;;;;1.11;83.17;96121.22;1278263;23;20001;-69
2021/03/08 01:29:59;;;;;;;30.63;19.97;;;;;;;1.11;82.62;96107.25;1284364;23;19997;-69
2021/03/08 01:30:32;;;;;;;26.70;20.27;;;;;;;1.12;83.12;96108.88;1284126;23;19997;-69
2021/03/08 01:31:03;;;;;;;25.08;18.77;;;;;;;1.11;82.19;96112.53;1284615;23;20039;-69
2021/03/08 01:31:33;;;;;;;29.67;19.50;;;;;;;1.12;83.02;96116.75;1284408;23;20008;-69
2021/03/08 01:32:04;;;;;;;26.20;19.07;;;;;;;1.13;82.70;96113.13;1284710;23;20008;-69
2021/03/08 01:32:35;;;;;;;25.58;18.50;;;;;;;1.13;82.00;96099.97;1284205;23;20419;-69
2021/03/08 01:33:05;;;;;;;28.30;19.50;;;;;;;1.13;82.29;96110.50;1284115;23;19997;-69
2021/03/08 01:33:36;;;;;;;27.30;19.87;;;;;;;1.11;82.46;96107.25;1278103;23;20001;-68
2021/03/08 01:34:06;;;;;;;24.27;18.33;;;;;;;1.12;82.37;96111.50;1278324;23;20024;-69
2021/03/08 01:34:36;;;;;;;29.17;18.83;;;;;;;1.11;83.08;96110.69;1284114;23;20005;-69
2021/03/08 01:35:07;;;;;;;26.77;19.10;;;;;;;1.12;82.11;96103.59;1284323;23;20000;-69
2021/03/08 01:35:38;;;;;;;28.43;19.23;;;;;;;1.12;82.73;96103.59;1284739;23;20414;-69
2021/03/08 01:36:08;;;;;;;26.13;19.23;;;;;;;1.07;82.62;96109.50;1284780;23;20720;-69
2021/03/08 01:36:39;;;;;;;28.17;19.43;;;;;;;1.08;82.33;96102.44;1284559;23;20019;-69
2021/03/08 01:37:10;;;;;;;27.33;17.93;;;;;;;1.03;82.53;96101.22;1284645;23;20011;-69
2021/03/08 01:37:40;;;;;;;25.10;18.67;;;;;;;1.00;82.38;96103.44;1284502;23;20039;-69
2021/03/08 01:38:11;;;;;;;27.13;19.70;;;;;;;0.97;82.81;96103.84;1284596;23;20008;-69
2021/03/08 01:38:41;;;;;;;28.57;18.97;;;;;;;0.97;82.18;96106.47;1284640;23;19996;-69
2021/03/08 01:39:11;;;;;;;30.83;18.97;;;;;;;0.94;82.69;96107.72;1284701;23;20004;-69
2021/03/08 01:39:42;;;;;;;27.90;18.43;;;;;;;0.91;82.91;96105.47;1284587;23;20000;-69
2021/03/08 01:40:13;;;;;;;35.47;19.87;;;;;;;0.88;83.40;96108.53;1284732;23;20012;-69
2021/03/08 01:40:44;;;;;;;26.35;18.17;;;;;;;0.87;82.99;96108.72;1284596;23;20004;-69
2021/03/08 01:41:14;;;;;;;29.07;19.40;;;;;;;0.82;83.79;96113.81;1284696;23;20001;-69
2021/03/08 01:41:44;;;;;;;25.53;18.23;;;;;;;0.78;83.87;96108.97;1284255;23;20008;-69
2021/03/08 01:42:15;;;;;;;27.37;19.13;;;;;;;0.74;84.74;96099.84;1284149;23;20000;-69
2021/03/08 01:42:45;;;;;;;29.97;19.70;;;;;;;0.73;84.59;96115.84;1284277;23;20008;-69
2021/03/08 01:43:16;;;;;;;28.80;19.23;;;;;;;0.74;84.40;96109.56;1284268;23;20450;-69
2021/03/08 01:43:46;;;;;;;28.70;19.40;;;;;;;0.73;84.18;96105.34;1284569;23;20080;-68
2021/03/08 01:44:17;;;;;;;26.63;19.30;;;;;;;0.72;84.86;96099.28;1284606;23;20001;-69
2021/03/08 01:44:48;;;;;;;32.20;19.63;;;;;;;0.75;84.86;96104.09;1284569;23;20058;-69
2021/03/08 01:45:22;;;;;;;26.65;19.20;;;;;;;0.74;84.20;96110.38;1284668;23;20011;-69
2021/03/08 01:45:53;;;;;;;30.35;19.33;;;;;;;0.75;84.52;96103.28;1284580;23;20008;-69
2021/03/08 01:46:24;;;;;;;27.05;19.40;;;;;;;0.78;84.88;96103.69;1284798;23;20054;-68
2021/03/08 01:46:54;;;;;;;31.43;19.13;;;;;;;0.76;84.67;96103.09;1284950;23;20004;-69
2021/03/08 01:47:25;;;;;;;25.73;17.93;;;;;;;0.79;83.95;96099.25;1284978;23;20208;-69
2021/03/08 01:47:55;;;;;;;26.07;18.70;;;;;;;0.77;84.14;96099.47;1285036;23;20000;-69
2021/03/08 01:48:25;;;;;;;28.23;19.77;;;;;;;0.74;84.85;96101.69;1285098;23;20365;-69
2021/03/08 01:48:56;;;;;;;25.30;18.00;;;;;;;0.77;84.17;96096.03;1284972;23;20009;-69
2021/03/08 01:49:26;;;;;;;27.27;19.40;;;;;;;0.76;84.02;96094.38;1290747;23;19996;-68
2021/03/08 01:49:57;;;;;;;27.03;18.47;;;;;;;0.78;84.05;96105.53;1290867;23;20007;-68
2021/03/08 01:50:38;;;;;;;26.17;17.87;;;;;;;0.77;83.76;96096.03;1290852;23;20003;-68
2021/03/08 01:51:08;;;;;;;30.95;19.23;;;;;;;0.73;84.32;96097.44;1288862;23;20451;-69
2021/03/08 01:51:39;;;;;;;25.93;18.53;;;;;;;0.71;83.54;96102.09;1285046;23;20000;-69
2021/03/08 01:52:10;;;;;;;27.67;18.80;;;;;;;0.68;83.99;96097.25;1290952;23;20003;-68
2021/03/08 01:52:40;;;;;;;26.65;18.65;;;;;;;0.65;84.44;96093.19;1290857;23;20060;-69
2021/03/08 01:53:16;;;;;;;28.80;19.03;;;;;;;0.61;84.07;96096.44;1284580;23;20037;-69
2021/03/08 01:53:47;;;;;;;31.45;20.13;;;;;;;0.58;84.44;96099.50;1284666;23;19997;-69
2021/03/08 01:54:18;;;;;;;26.80;19.70;;;;;;;0.54;85.05;96100.91;1278278;23;20070;-69
2021/03/08 01:54:48;;;;;;;27.63;18.83;;;;;;;0.47;84.83;96098.28;1279826;23;20059;-67
2021/03/08 01:55:19;;;;;;;26.73;18.47;;;;;;;0.48;84.63;96102.53;1272144;23;20009;-67
2021/03/08 01:55:49;;;;;;;25.47;18.17;;;;;;;0.48;84.90;96102.53;1266406;23;20081;-67
2021/03/08 01:56:20;;;;;;;27.70;19.37;;;;;;;0.46;84.77;96094.84;1272229;23;19997;-68
2021/03/08 01:56:50;;;;;;;27.13;19.13;;;;;;;0.46;85.06;96099.28;1266600;23;20002;-68
2021/03/08 01:57:21;;;;;;;27.93;19.33;;;;;;;0.42;85.02;96098.09;1278554;23;20008;-68
2021/03/08 01:57:51;;;;;;;26.83;18.63;;;;;;;0.39;85.39;96094.03;1284389;23;20123;-67
2021/03/08 01:58:23;;;;;;;27.63;18.80;;;;;;;0.38;85.24;96102.94;1278347;23;20025;-68
2021/03/08 01:58:53;;;;;;;29.70;19.42;;;;;;;0.35;85.25;96100.69;1284601;23;20020;-67
2021/03/08 01:59:24;;;;;;;27.80;19.23;;;;;;;0.35;85.91;96100.69;1284533;23;20617;-69
2021/03/08 01:59:54;;;;;;;26.83;19.10;;;;;;;0.33;85.39;96101.94;1284734;23;20411;-68
2021/03/08 02:00:25;;;;;;;26.10;17.93;;;;;;;0.30;85.59;96097.88;1284609;23;20001;-68
2021/03/08 02:00:56;;;;;;;26.58;18.88;;;;;;;0.28;85.87;96094.66;1284914;23;20000;-67
2021/03/08 02:01:26;;;;;;;26.93;19.13;;;;;;;0.26;85.73;96096.69;1290675;23;20008;-68
2021/03/08 02:01:56;;;;;;;28.00;19.13;;;;;;;0.24;85.66;96099.50;1284583;23;20168;-68
2021/03/08 02:02:27;;;;;;;29.03;20.20;;;;;;;0.20;86.34;96102.72;1272338;23;20052;-67
2021/03/08 02:02:57;;;;;;;25.43;18.40;;;;;;;0.17;86.51;96101.31;1272252;23;20052;-68
2021/03/08 02:03:28;;;;;;;27.13;19.90;;;;;;;0.13;86.34;96094.03;1272303;23;20060;-68
2021/03/08 02:03:58;;;;;;;28.00;19.17;;;;;;;0.10;87.06;96097.06;1278611;23;20055;-68
2021/03/08 02:04:29;;;;;;;27.83;19.43;;;;;;;0.03;86.50;96094.44;1285051;23;20009;-68
2021/03/08 02:04:59;;;;;;;31.47;20.77;;;;;;;0.05;86.92;96099.47;1285092;23;20000;-68
2021/03/08 02:05:36;;;;;;;28.97;19.40;;;;;;;0.04;86.76;96097.88;1285038;23;20008;-68
2021/03/08 02:06:07;;;;;;;28.67;18.75;;;;;;;0.04;86.85;96098.69;1285046;23;20054;-68
2021/03/08 02:06:37;;;;;;;29.10;19.33;;;;;;;0.02;87.10;96094.66;1285075;23;20422;-68
2021/03/08 02:07:07;;;;;;;27.93;19.67;;;;;;;0.08;87.43;96091.22;1285064;23;20409;-68
2021/03/08 02:07:38;;;;;;;30.13;19.97;;;;;;;0.09;86.76;96092.81;1284935;23;20004;-68
2021/03/08 02:08:09;;;;;;;27.80;19.03;;;;;;;0.12;87.35;96095.88;1284532;23;19988;-68
2021/03/08 02:08:40;;;;;;;28.05;19.33;;;;;;;0.10;86.73;96089.19;1284506;23;20000;-68
2021/03/08 02:09:10;;;;;;;30.63;19.13;;;;;;;0.10;86.91;96095.25;1284654;23;20450;-68
2021/03/08 02:09:41;;;;;;;27.60;20.00;;;;;;;0.13;87.25;96100.09;1284696;23;20028;-68
2021/03/08 02:10:12;;;;;;;34.53;21.63;;;;;;;0.16;86.37;96093.66;1284899;23;19993;-68
2021/03/08 02:10:43;;;;;;;27.98;19.17;;;;;;;0.22;86.71;96098.09;1284890;23;20081;-68
2021/03/08 02:11:13;;;;;;;28.87;20.50;;;;;;;0.26;86.59;96099.31;1285008;23;20000;-68
2021/03/08 02:11:45;;;;;;;29.03;20.27;;;;;;;0.27;86.98;96093.03;1285059;23;20476;-68
2021/03/08 02:12:27;;;;;;;28.42;19.58;;;;;;;0.31;86.71;96103.94;1284662;23;19992;-68
2021/03/08 02:13:31;;;;;;;28.42;20.55;;;;;;;0.31;86.31;96094.25;1284702;23;19992;-68
2021/03/08 02:14:38;;;;;;;26.23;18.23;;;;;;;0.32;85.95;96095.88;1280882;23;20020;-68
2021/03/08 02:15:31;;;;;;;27.45;19.13;;;;;;;0.31;85.84;96086.38;1284619;23;20020;-68
2021/03/08 02:16:13;;;;;;;27.30;18.55;;;;;;;0.29;85.92;96093.63;1284386;23;20080;-68
2021/03/08 02:16:53;;;;;;;26.20;19.13;;;;;;;0.35;85.82;96092.81;1284684;23;19992;-68
2021/03/08 02:17:27;;;;;;;28.38;20.52;;;;;;;0.39;86.01;96086.16;1284736;23;20001;-67
2021/03/08 02:18:22;;;;;;;28.20;19.58;;;;;;;0.38;85.50;96089.78;1278372;23;20001;-68
2021/03/08 02:19:02;;;;;;;28.10;18.83;;;;;;;0.37;85.82;96082.91;1278244;23;19997;-67
2021/03/08 02:19:50;;;;;;;29.35;18.85;;;;;;;0.35;85.58;96074.41;1279490;23;19997;-67
2021/03/08 02:20:45;;;;;;;29.48;17.83;;;;;;;0.39;86.19;96078.25;1284536;23;20012;-67
2021/03/08 02:21:33;;;;;;;28.73;18.45;;;;;;;0.40;85.89;96071.97;1284505;23;20092;-67
2021/03/08 02:22:21;;;;;;;28.58;18.20;;;;;;;0.41;85.73;96075.41;1284663;23;19997;-67
2021/03/08 02:23:21;;;;;;;25.02;17.77;;;;;;;0.40;85.99;96085.13;1273247;23;19985;-67
2021/03/08 02:24:01;;;;;;;31.10;17.73;;;;;;;0.37;85.74;96079.50;1278461;23;20004;-68
2021/03/08 02:24:43;;;;;;;25.38;17.77;;;;;;;0.34;85.16;96072.81;1278362;23;20009;-67
2021/03/08 02:25:44;;;;;;;29.15;18.17;;;;;;;0.33;85.33;96075.63;1278315;23;19993;-68
2021/03/08 02:26:18;;;;;;;26.35;18.55;;;;;;;0.34;85.49;96078.06;1284733;23;20003;-69
2021/03/08 02:26:58;;;;;;;28.15;19.08;;;;;;;0.33;85.57;96076.44;1284574;23;19989;-68
2021/03/08 02:27:51;;;;;;;27.58;18.30;;;;;;;0.37;85.54;96075.03;1284608;23;20051;-68
2021/03/08 02:28:43;;;;;;;26.63;17.10;;;;;;;0.39;85.67;96074.81;1272152;23;20021;-69
2021/03/08 02:29:44;;;;;;;24.58;16.95;;;;;;;0.37;84.87;96080.28;1281417;23;19993;-68